Monteview, ID

11:11 AM MDT on August 20, 2014 (GMT -0600)
ITD Kettle Butte HWY-20 ID US | Change Station
CLOSE
Current Station
Personal Weather Station
Location: Idaho Falls, ID
Elevation: 5111 ft
Nearby Weather Stations

Elev 5111 ft 43.55 °N, 112.42 °W | Updated 56 minutes ago

Scattered Clouds
Scattered Clouds
67 °F
Feels Like 67 °F
N
3
Wind Variable Wind from South
Gusts 5.0 mph

Today
High -- | Low -- °F
--% Chance of Precip.
Yesterday
High -- | Low -- °F
Precip. -- in
6:40 AM 8:26 PM
Waning Crescent, 20% visible
Pressure 29.89 in
Visibility 10.0 miles
Clouds Few 10000 ft
Scattered Clouds 15000 ft
Scattered Clouds 25000 ft
Dew Point 53 °F
Humidity 61%
Rainfall -999.00 in
Snow Depth Not available.
UV 5 out of 12
Pollen 8.30 out of 12
PM2.5 Good
Flu Activity Not available.
METAR KIDA 201653Z 23004KT 10SM FEW100 SCT150 SCT250 20/12 A3000 RMK AO2 SLP120 HZ ALQDS T02000117

More Conditions Fewer Conditions

Pressure 29.89 in
Visibility 10.0 miles
Clouds Few 10000 ft
Scattered Clouds 15000 ft
Scattered Clouds 25000 ft
Dew Point 53 °F
Humidity 61%
Rainfall -999.00 in
Snow Depth Not available.
UV 5 out of 12
Pollen 8.30 out of 12
PM2.5 Good
Flu Activity Not available.
METAR KIDA 201653Z 23004KT 10SM FEW100 SCT150 SCT250 20/12 A3000 RMK AO2 SLP120 HZ ALQDS T02000117

More Conditions Fewer Conditions

10-Day Weather Forecast

Almanac

Astronomy

Aug. 20, 2014 Rise Set
Actual Time 6:40 AM MDT 8:26 PM MDT
Civil Twilight 6:09 AM MDT 8:56 PM MDT
Nautical Twilight 5:31 AM MDT 9:33 PM MDT
Astronomical Twilight 4:51 AM MDT 10:14 PM MDT
Moon 2:19 AM MDT 5:17 PM MDT
Length of Visible Light 14h 47m
Length of Day
13h 46m
Tomorrow will be 2m 46s shorter.
Waning Crescent, 20% of the Moon is Illuminated
Today
Waning Crescent
Aug 25
New
Sep 2
First Quarter
Sep 8
Full
Sep 15
Last Quarter

Today's Extremes

State Highs State Lows

Community

WunderPhotos

Upload Photos

1,745,694 photos uploaded!

WunderBlogs® & News

By Dr. Jeff Masters
Director of Meteorology, Weather Underground
By Kari Strenfel
Meteorologist, Weather Underground
By Christopher C. Burt
Weather Historian, Weather Underground
August 20, 2014
August 20, 2014
August 20, 2014

Nearby

Air Quality

  Air Quality AQ Index Pollutant
Yesterday Good
PM2.5
Current Good
PM2.5
Wednesday Good
PM2.5
Thursday Good
PM2.5

Snow Depth

Station Depth Elevation
Crab Creek 113 in 6860 ft
Hilts Creek 0 in 8000 ft
Moonshine 0 in 7440 ft
Sheep Mountain 0 in 6570 ft
Island Park 0 in 6290 ft

Earthquake Activity

City Distance Mag. Time & Date
No recent earthquake activity has been reported nearby.
Minimum magnitude displayed is 2.5.

Coastal Water Temperatures

Place Temperature
No Stations Reporting

Nearby Weather Stations